createdAt,value
2018-08-06T00:01:42.410Z,57.70
2018-08-06T00:04:15.559Z,57.50
2018-08-06T00:06:46.648Z,57.60
2018-08-06T00:12:00.611Z,58.50
2018-08-06T00:14:32.053Z,58.90
2018-08-06T00:17:04.797Z,58.90
2018-08-06T00:19:40.929Z,59.00
2018-08-06T00:22:13.406Z,59.10
2018-08-06T00:27:18.350Z,58.90
2018-08-06T00:29:48.953Z,59.10
2018-08-06T00:32:26.372Z,59.00
2018-08-06T00:34:58.778Z,58.70
2018-08-06T00:40:13.851Z,59.60
2018-08-06T00:42:50.270Z,59.50
2018-08-06T00:45:34.627Z,59.50
2018-08-06T00:48:19.894Z,60.30
2018-08-06T00:50:55.922Z,59.90
2018-08-06T00:53:26.170Z,60.10
2018-08-06T00:55:56.438Z,60.60
2018-08-06T00:58:28.462Z,60.70
2018-08-06T01:01:00.421Z,60.70
2018-08-06T01:03:35.249Z,61.00
2018-08-06T01:06:11.014Z,61.00
2018-08-06T01:08:40.567Z,61.40
2018-08-06T01:13:51.640Z,60.40
2018-08-06T01:16:23.988Z,60.70
2018-08-06T01:18:55.557Z,60.80
2018-08-06T01:21:32.295Z,61.20
2018-08-06T01:24:08.537Z,61.30
2018-08-06T01:26:48.830Z,61.10
2018-08-06T01:29:21.013Z,61.10
2018-08-06T01:32:11.301Z,61.60
2018-08-06T01:37:27.503Z,62.30
2018-08-06T01:40:01.408Z,61.50
2018-08-06T01:42:32.096Z,61.70
2018-08-06T01:45:05.564Z,61.90
2018-08-06T01:47:34.474Z,62.00
2018-08-06T01:50:14.511Z,62.00
2018-08-06T01:52:46.244Z,62.00
2018-08-06T01:55:15.248Z,62.20
2018-08-06T01:57:45.915Z,62.00
2018-08-06T02:00:18.144Z,62.20
2018-08-06T02:02:49.412Z,62.40
2018-08-06T02:05:26.222Z,62.70
2018-08-06T02:07:57.737Z,62.90
2018-08-06T02:10:28.345Z,63.10
2018-08-06T02:12:59.346Z,63.30
2018-08-06T02:15:40.330Z,63.30
2018-08-06T02:18:14.164Z,63.20
2018-08-06T02:20:44.739Z,63.30
2018-08-06T02:23:17.284Z,63.60
2018-08-06T02:25:58.524Z,63.60
2018-08-06T02:28:36.944Z,63.90
2018-08-06T02:31:05.893Z,63.90
2018-08-06T02:33:35.248Z,63.80
2018-08-06T02:38:37.313Z,64.30
2018-08-06T02:41:13.257Z,64.60
2018-08-06T02:43:44.174Z,65.10
2018-08-06T02:46:14.332Z,65.00
2018-08-06T02:51:26.226Z,64.90
2018-08-06T02:56:36.688Z,64.70
2018-08-06T02:59:06.455Z,64.60
2018-08-06T03:01:44.908Z,64.50
2018-08-06T03:04:14.130Z,64.50
2018-08-06T03:06:45.951Z,64.50
2018-08-06T03:09:24.265Z,64.70
2018-08-06T03:11:54.965Z,64.80
2018-08-06T03:14:27.772Z,64.80
2018-08-06T03:17:18.017Z,64.90
2018-08-06T03:19:52.516Z,64.90
2018-08-06T03:22:23.398Z,65.20
2018-08-06T03:24:54.689Z,65.40
2018-08-06T03:27:27.418Z,65.40
2018-08-06T03:29:58.289Z,65.30
2018-08-06T03:32:27.993Z,65.40
2018-08-06T03:34:57.984Z,65.20
2018-08-06T03:37:28.785Z,66.30
2018-08-06T03:40:02.818Z,65.30
2018-08-06T03:42:46.763Z,65.60
2018-08-06T03:45:17.606Z,65.80
2018-08-06T03:47:47.774Z,66.20
2018-08-06T03:50:18.508Z,66.50
2018-08-06T03:52:50.234Z,66.40
2018-08-06T03:55:25.557Z,66.20
2018-08-06T04:00:35.557Z,66.10
2018-08-06T04:03:09.956Z,66.30
2018-08-06T04:05:44.937Z,66.60
2018-08-06T04:08:15.576Z,66.60
2018-08-06T04:10:51.690Z,66.50
2018-08-06T04:13:20.840Z,67.20
2018-08-06T04:15:49.957Z,66.60
2018-08-06T04:18:20.088Z,66.90
2018-08-06T04:20:52.436Z,67.20
2018-08-06T04:23:24.400Z,66.70
2018-08-06T04:25:55.065Z,66.50
2018-08-06T04:28:30.004Z,66.50
2018-08-06T04:31:00.783Z,66.80
2018-08-06T04:33:37.307Z,67.00
2018-08-06T04:36:11.674Z,67.60
2018-08-06T04:38:47.786Z,67.70
2018-08-06T04:41:21.533Z,67.70
2018-08-06T04:43:56.399Z,67.70
2018-08-06T04:46:26.186Z,67.50
2018-08-06T04:48:55.135Z,67.50
2018-08-06T04:54:02.518Z,67.60
2018-08-06T04:59:10.932Z,67.40
2018-08-06T05:04:34.443Z,67.50
2018-08-06T05:07:10.674Z,67.70
2018-08-06T05:09:44.068Z,68.00
2018-08-06T05:12:21.640Z,68.10
2018-08-06T05:14:52.832Z,67.70
2018-08-06T05:17:27.324Z,67.90
2018-08-06T05:20:01.292Z,67.90
2018-08-06T05:22:32.384Z,67.80
2018-08-06T05:27:50.038Z,68.20
2018-08-06T05:30:20.834Z,68.30
2018-08-06T05:32:56.001Z,67.90
2018-08-06T05:35:36.441Z,68.20
2018-08-06T05:40:46.844Z,67.80
2018-08-06T05:43:16.858Z,68.60
2018-08-06T05:45:51.162Z,68.50
2018-08-06T05:48:22.155Z,68.30
2018-08-06T05:50:56.001Z,68.10
2018-08-06T05:53:28.177Z,68.10
2018-08-06T05:56:12.949Z,67.70
2018-08-06T05:58:51.395Z,67.40
2018-08-06T06:01:21.271Z,67.50
2018-08-06T06:03:58.023Z,67.40
2018-08-06T06:06:30.721Z,67.40
2018-08-06T06:09:11.650Z,67.30
2018-08-06T06:11:53.291Z,67.20
2018-08-06T06:17:09.126Z,67.40
2018-08-06T06:19:48.107Z,67.10
2018-08-06T06:22:21.523Z,67.40
2018-08-06T06:24:51.945Z,67.60
2018-08-06T06:27:22.683Z,67.80
2018-08-06T06:29:54.968Z,68.20
2018-08-06T06:32:26.805Z,67.80
2018-08-06T06:35:01.587Z,67.60
2018-08-06T06:37:30.640Z,67.60
2018-08-06T06:40:03.369Z,67.80
2018-08-06T06:42:35.211Z,67.50
2018-08-06T06:45:04.121Z,67.10
2018-08-06T06:50:23.986Z,66.90
2018-08-06T06:52:55.489Z,66.90
2018-08-06T06:55:31.745Z,66.70
2018-08-06T06:58:06.209Z,66.90
2018-08-06T07:00:49.543Z,65.70
2018-08-06T07:03:21.451Z,65.60
2018-08-06T07:05:57.621Z,66.00
2018-08-06T07:08:39.985Z,65.90
2018-08-06T07:11:19.265Z,65.80
2018-08-06T07:13:51.150Z,65.40
2018-08-06T07:16:26.436Z,65.40
2018-08-06T07:18:58.373Z,64.80
2018-08-06T07:21:29.518Z,64.10
2018-08-06T07:24:03.008Z,63.90
2018-08-06T07:26:38.546Z,63.40
2018-08-06T07:29:08.268Z,63.10
2018-08-06T07:31:48.738Z,63.40
2018-08-06T07:34:24.690Z,62.90
2018-08-06T07:36:54.991Z,62.30
2018-08-06T07:39:33.321Z,62.40
2018-08-06T07:44:45.072Z,61.90
2018-08-06T07:47:26.230Z,62.30
2018-08-06T07:50:00.125Z,62.20
2018-08-06T07:52:35.929Z,61.50
2018-08-06T07:55:11.107Z,61.30
2018-08-06T07:57:40.183Z,60.70
2018-08-06T08:00:12.979Z,61.00
2018-08-06T08:02:46.932Z,61.20
2018-08-06T08:05:22.512Z,60.60
2018-08-06T08:10:44.172Z,60.70
2018-08-06T08:13:21.863Z,60.80
2018-08-06T08:16:01.199Z,60.60
2018-08-06T08:18:43.339Z,60.20
2018-08-06T08:21:14.466Z,59.90
2018-08-06T08:23:47.880Z,60.00
2018-08-06T08:26:23.782Z,59.60
2018-08-06T08:28:53.937Z,59.70
2018-08-06T08:31:24.832Z,59.60
2018-08-06T08:33:54.701Z,59.60
2018-08-06T08:36:24.058Z,59.30
2018-08-06T08:41:35.421Z,58.80
2018-08-06T08:44:09.865Z,58.80
2018-08-06T08:46:43.314Z,58.20
2018-08-06T08:49:22.175Z,58.40
2018-08-06T08:51:59.059Z,58.20
2018-08-06T08:54:30.229Z,57.70
2018-08-06T08:57:01.135Z,57.50
2018-08-06T08:59:36.680Z,57.50
2018-08-06T09:02:17.795Z,56.90
2018-08-06T09:04:53.527Z,57.20
2018-08-06T09:07:24.730Z,57.30
2018-08-06T09:09:54.408Z,56.40
2018-08-06T09:12:34.513Z,56.50
2018-08-06T09:15:10.020Z,55.90
2018-08-06T09:17:43.673Z,55.10
2018-08-06T09:20:20.051Z,54.40
2018-08-06T09:23:00.605Z,54.50
2018-08-06T09:28:20.659Z,53.40
2018-08-06T09:33:36.687Z,53.50
2018-08-06T09:36:12.529Z,53.90
2018-08-06T09:38:56.101Z,52.90
2018-08-06T09:41:26.282Z,53.20
2018-08-06T09:44:07.335Z,52.20
2018-08-06T09:46:42.800Z,52.60
2018-08-06T09:49:16.224Z,51.90
2018-08-06T09:51:48.066Z,51.60
2018-08-06T09:54:18.051Z,51.30
2018-08-06T09:56:49.975Z,51.20
2018-08-06T09:59:30.293Z,51.10
2018-08-06T10:02:03.589Z,51.00
2018-08-06T10:04:42.322Z,51.70
2018-08-06T10:07:20.075Z,50.60
2018-08-06T10:09:48.919Z,50.50
2018-08-06T10:12:21.056Z,50.60
2018-08-06T10:14:49.887Z,49.90
2018-08-06T10:17:24.978Z,50.20
2018-08-06T10:22:55.562Z,49.10
2018-08-06T10:28:15.978Z,48.40
2018-08-06T10:30:53.086Z,48.70
2018-08-06T10:33:34.854Z,48.50
2018-08-06T10:36:18.559Z,49.00
2018-08-06T10:38:51.989Z,48.40
2018-08-06T10:44:05.279Z,47.90
2018-08-06T10:46:35.435Z,48.20
2018-08-06T10:49:18.213Z,47.90
2018-08-06T10:51:53.192Z,47.50
2018-08-06T10:54:26.561Z,47.60
2018-08-06T10:57:08.129Z,47.00
2018-08-06T10:59:36.993Z,47.00
2018-08-06T11:02:08.524Z,46.90
2018-08-06T11:04:46.235Z,46.00
2018-08-06T11:07:23.887Z,47.10
2018-08-06T11:10:08.295Z,46.40
2018-08-06T11:12:40.427Z,46.10
2018-08-06T11:15:16.035Z,46.40
2018-08-06T11:17:49.198Z,46.00
2018-08-06T11:20:22.637Z,47.00
2018-08-06T11:22:59.454Z,46.60
2018-08-06T11:25:41.176Z,46.10
2018-08-06T11:28:11.366Z,45.70
2018-08-06T11:33:50.405Z,45.70
2018-08-06T11:36:34.474Z,44.80
2018-08-06T11:39:10.867Z,45.20
2018-08-06T11:41:56.728Z,45.20
2018-08-06T11:44:31.683Z,45.30
2018-08-06T11:47:17.237Z,44.00
2018-08-06T11:49:48.340Z,43.90
2018-08-06T11:52:20.162Z,44.10
2018-08-06T11:54:54.129Z,44.20
2018-08-06T11:57:33.153Z,43.80
2018-08-06T12:00:05.334Z,43.10
2018-08-06T12:02:42.534Z,42.70
2018-08-06T12:05:19.028Z,43.00
2018-08-06T12:07:53.690Z,42.70
2018-08-06T12:10:29.841Z,43.40
2018-08-06T12:13:12.153Z,43.30
2018-08-06T12:15:44.863Z,43.40
2018-08-06T12:18:17.111Z,42.50
2018-08-06T12:20:48.528Z,43.30
2018-08-06T12:23:26.710Z,42.80
2018-08-06T12:25:58.550Z,41.80
2018-08-06T12:31:19.975Z,42.10
2018-08-06T12:36:36.210Z,42.60
2018-08-06T12:39:12.657Z,42.30
2018-08-06T12:44:48.668Z,41.70
2018-08-06T12:47:27.145Z,41.60
2018-08-06T12:49:56.498Z,41.40
2018-08-06T12:52:34.085Z,42.30
2018-08-06T12:55:07.756Z,41.20
2018-08-06T12:57:41.974Z,41.30
2018-08-06T13:00:17.753Z,40.80
2018-08-06T13:02:48.017Z,40.90
2018-08-06T13:05:24.951Z,40.90
2018-08-06T13:08:03.934Z,40.20
2018-08-06T13:10:47.088Z,39.50
2018-08-06T13:13:18.418Z,39.00
2018-08-06T13:15:54.467Z,39.50
2018-08-06T13:18:30.257Z,39.60
2018-08-06T13:21:00.744Z,39.20
2018-08-06T13:23:33.706Z,39.50
2018-08-06T13:28:57.790Z,38.80
2018-08-06T13:31:34.185Z,39.30
2018-08-06T13:39:44.537Z,38.80
2018-08-06T13:42:17.240Z,39.10
2018-08-06T13:45:03.748Z,39.70
2018-08-06T13:47:39.477Z,40.30
2018-08-06T13:50:23.561Z,40.20
2018-08-06T13:55:45.251Z,39.80
2018-08-06T13:58:22.788Z,38.90
2018-08-06T14:00:56.460Z,38.60
2018-08-06T14:03:27.364Z,39.00
2018-08-06T14:06:01.602Z,38.00
2018-08-06T14:11:19.335Z,37.40
2018-08-06T14:13:49.273Z,37.40
2018-08-06T14:16:24.046Z,37.20
2018-08-06T14:18:53.529Z,37.90
2018-08-06T14:24:12.992Z,37.70
2018-08-06T14:27:03.705Z,37.10
2018-08-06T14:29:34.181Z,37.20
2018-08-06T14:32:14.069Z,37.30
2018-08-06T14:34:49.786Z,37.10
2018-08-06T14:37:23.987Z,37.20
2018-08-06T14:39:54.539Z,36.10
2018-08-06T14:42:30.481Z,36.20
2018-08-06T14:45:09.528Z,36.10
2018-08-06T14:47:39.993Z,35.30
2018-08-06T14:50:15.378Z,36.00
2018-08-06T14:52:47.692Z,35.80
2018-08-06T14:55:22.469Z,35.90
2018-08-06T14:58:05.488Z,35.30
2018-08-06T15:00:36.343Z,34.60
2018-08-06T15:03:16.521Z,34.80
2018-08-06T15:05:48.949Z,35.50
2018-08-06T15:08:18.459Z,34.80
2018-08-06T15:10:57.216Z,35.30
2018-08-06T15:13:36.799Z,34.50
2018-08-06T15:16:13.148Z,34.80
2018-08-06T15:18:48.427Z,34.80
2018-08-06T15:21:19.327Z,34.40
2018-08-06T15:23:51.105Z,34.30
2018-08-06T15:26:20.570Z,33.60
2018-08-06T15:29:01.866Z,33.90
2018-08-06T15:34:15.971Z,32.60
2018-08-06T15:36:51.940Z,32.40
2018-08-06T15:39:27.030Z,33.20
2018-08-06T15:42:02.048Z,33.60
2018-08-06T15:44:44.839Z,33.50
2018-08-06T15:49:58.831Z,34.20
2018-08-06T15:52:35.111Z,34.30
2018-08-06T15:57:52.117Z,34.20
2018-08-06T16:00:31.449Z,33.60
2018-08-06T16:03:15.171Z,33.30
2018-08-06T16:05:46.262Z,34.40
2018-08-06T16:08:18.410Z,34.50
2018-08-06T16:10:48.042Z,35.20
2018-08-06T16:13:17.130Z,35.00
2018-08-06T16:15:51.128Z,34.70
2018-08-06T16:18:24.377Z,32.80
2018-08-06T16:23:33.420Z,32.20
2018-08-06T16:26:12.943Z,31.80
2018-08-06T16:28:49.682Z,32.30
2018-08-06T16:31:32.320Z,31.50
2018-08-06T16:34:02.519Z,30.90
2018-08-06T16:36:39.554Z,31.50
2018-08-06T16:39:17.431Z,30.70
2018-08-06T16:42:00.771Z,31.40
2018-08-06T16:44:55.989Z,32.00
2018-08-06T16:47:24.840Z,32.80
2018-08-06T16:49:55.896Z,32.60
2018-08-06T16:55:12.511Z,31.90
2018-08-06T16:57:47.326Z,31.90
2018-08-06T17:00:28.737Z,32.40
2018-08-06T17:03:05.671Z,33.00
2018-08-06T17:08:23.400Z,32.80
2018-08-06T17:10:53.194Z,32.90
2018-08-06T17:13:29.314Z,33.10
2018-08-06T17:15:58.938Z,33.50
2018-08-06T17:21:07.334Z,33.20
2018-08-06T17:23:39.723Z,33.20
2018-08-06T17:26:10.432Z,32.90
2018-08-06T17:28:49.873Z,33.10
2018-08-06T17:34:03.813Z,33.90
2018-08-06T17:36:43.274Z,34.60
2018-08-06T17:41:58.423Z,35.00
2018-08-06T17:44:30.632Z,35.90
2018-08-06T17:47:06.379Z,36.40
2018-08-06T17:49:43.867Z,36.40
2018-08-06T17:52:17.203Z,37.20
2018-08-06T17:54:53.645Z,37.50
2018-08-06T17:57:32.299Z,37.90
2018-08-06T18:00:08.468Z,38.20
2018-08-06T18:02:49.000Z,38.30
2018-08-06T18:05:31.287Z,38.60
2018-08-06T18:08:06.756Z,38.50
2018-08-06T18:10:40.576Z,38.70
2018-08-06T18:13:11.400Z,38.80
2018-08-06T18:15:50.510Z,38.90
2018-08-06T18:21:06.467Z,39.50
2018-08-06T18:23:43.051Z,40.10
2018-08-06T18:26:15.578Z,40.10
2018-08-06T18:28:57.573Z,40.50
2018-08-06T18:34:20.223Z,41.20
2018-08-06T18:36:51.431Z,41.80
2018-08-06T18:39:30.234Z,42.10
2018-08-06T18:42:10.252Z,42.80
2018-08-06T18:47:25.409Z,44.90
2018-08-06T18:50:03.282Z,44.70
2018-08-06T18:52:36.535Z,45.70
2018-08-06T18:55:09.722Z,45.80
2018-08-06T18:57:44.118Z,46.40
2018-08-06T19:00:20.695Z,47.30
2018-08-06T19:05:48.587Z,48.10
2018-08-06T19:08:23.972Z,48.00
2018-08-06T19:10:59.974Z,48.30
2018-08-06T19:18:49.600Z,49.80
2018-08-06T19:21:27.383Z,50.50
2018-08-06T19:24:03.264Z,50.60
2018-08-06T19:26:35.524Z,51.10
2018-08-06T19:29:19.383Z,51.50
2018-08-06T19:32:01.172Z,52.10
2018-08-06T19:34:31.785Z,52.50
2018-08-06T19:39:41.157Z,53.40
2018-08-06T19:42:11.542Z,53.30
2018-08-06T19:44:51.658Z,53.30
2018-08-06T19:50:06.656Z,54.00
2018-08-06T19:55:18.519Z,54.80
2018-08-06T19:57:48.640Z,54.80
2018-08-06T20:00:19.152Z,55.10
2018-08-06T20:02:50.978Z,55.40
2018-08-06T20:05:26.135Z,55.10
2018-08-06T20:08:07.327Z,56.10
2018-08-06T20:10:36.997Z,57.20
2018-08-06T20:13:11.358Z,58.30
2018-08-06T20:18:24.316Z,59.30
2018-08-06T20:20:57.926Z,59.40
2018-08-06T20:23:37.063Z,59.50
2018-08-06T20:26:24.069Z,59.60
2018-08-06T20:29:02.332Z,60.70
2018-08-06T20:31:37.185Z,61.40
2018-08-06T20:34:18.115Z,60.00
2018-08-06T20:37:01.181Z,58.20
2018-08-06T20:42:21.108Z,59.30
2018-08-06T20:44:56.056Z,58.90
2018-08-06T20:47:34.389Z,58.60
2018-08-06T20:50:07.415Z,58.20
2018-08-06T20:52:44.509Z,58.00
2018-08-06T20:55:27.297Z,57.80
2018-08-06T20:58:06.258Z,56.90
2018-08-06T21:00:44.251Z,56.20
2018-08-06T21:03:22.031Z,55.60
2018-08-06T21:06:04.024Z,55.50
2018-08-06T21:08:41.661Z,54.80
2018-08-06T21:14:14.536Z,54.20
2018-08-06T21:22:16.388Z,54.50
2018-08-06T21:25:01.158Z,55.40
2018-08-06T21:27:32.904Z,57.50
2018-08-06T21:30:06.448Z,57.60
2018-08-06T21:32:40.914Z,58.10
2018-08-06T21:35:18.873Z,58.10
2018-08-06T21:37:50.600Z,58.20
2018-08-06T21:40:29.718Z,58.30
2018-08-06T21:43:06.003Z,58.40
2018-08-06T21:45:43.949Z,58.10
2018-08-06T21:48:20.735Z,58.10
2018-08-06T21:50:57.309Z,58.30
2018-08-06T21:53:33.201Z,58.50
2018-08-06T21:56:08.406Z,59.10
2018-08-06T21:58:43.979Z,59.40
2018-08-06T22:01:20.376Z,59.40
2018-08-06T22:04:04.026Z,59.70
2018-08-06T22:06:33.874Z,60.00
2018-08-06T22:09:10.831Z,59.80
2018-08-06T22:11:50.746Z,59.70
2018-08-06T22:14:24.579Z,59.80
2018-08-06T22:16:53.424Z,60.30
2018-08-06T22:22:16.938Z,60.00
2018-08-06T22:24:58.270Z,59.80
2018-08-06T22:27:41.000Z,59.70
2018-08-06T22:30:12.762Z,61.90
2018-08-06T22:32:42.058Z,65.80
2018-08-06T22:35:15.665Z,67.90
2018-08-06T22:37:53.009Z,69.50
2018-08-06T22:40:23.813Z,69.30
2018-08-06T22:42:53.527Z,69.20
2018-08-06T22:45:31.924Z,68.80
2018-08-06T22:48:16.923Z,67.70
2018-08-06T22:53:39.453Z,67.70
2018-08-06T22:56:20.000Z,67.90
2018-08-06T22:58:51.595Z,67.60
2018-08-06T23:01:36.867Z,66.50
2018-08-06T23:04:08.547Z,65.20
2018-08-06T23:06:38.585Z,64.90
2018-08-06T23:09:09.322Z,64.70
2018-08-06T23:11:47.333Z,65.00
2018-08-06T23:14:21.861Z,65.90
2018-08-06T23:16:56.503Z,66.20
2018-08-06T23:19:36.566Z,65.70
2018-08-06T23:24:41.897Z,65.30
2018-08-06T23:27:11.284Z,65.80
2018-08-06T23:29:46.084Z,66.20
2018-08-06T23:32:16.079Z,65.60
2018-08-06T23:34:55.889Z,65.40
2018-08-06T23:37:37.949Z,65.40
2018-08-06T23:40:08.454Z,65.50
2018-08-06T23:42:39.269Z,65.40
2018-08-06T23:45:10.031Z,65.40
2018-08-06T23:47:40.682Z,64.90
2018-08-06T23:50:10.462Z,64.60
2018-08-06T23:52:48.425Z,65.20
2018-08-06T23:55:20.786Z,65.50
2018-08-06T23:57:53.573Z,65.60
